Time;durP1;ratioP1;P1;durP2;ratioP2;P2;SDS_P1;SDS_P2;PMS_P1;PMS_P2;Temp;Humidity;BMP_temperature;BMP_pressure;BME280_temperature;BME280_humidity;BME280_pressure;Samples;Min_cycle;Max_cycle;Signal;HPM_P1;HPM_P2
2022/10/26 03:42:05;;;;;;;8.73;4.07;;;9.60;99.90;;;;;;6285939;22;20098;-94
2022/10/26 03:44:31;;;;;;;8.13;3.65;;;9.60;99.90;;;;;;6287989;22;20022;-95
2022/10/26 04:10:15;;;;;;;7.90;3.90;;;9.20;99.90;;;;;;6339580;22;20022;-96
2022/10/26 04:18:00;;;;;;;7.93;3.80;;;9.20;99.90;;;;;;6339686;22;20026;-93
2022/10/26 04:26:07;;;;;;;9.32;3.80;;;9.10;99.90;;;;;;6339452;22;20023;-93
2022/10/26 04:28:33;;;;;;;8.97;3.93;;;9.10;99.90;;;;;;6286720;22;20018;-95
2022/10/26 04:31:01;;;;;;;9.02;4.43;;;9.10;99.90;;;;;;6287776;22;20444;-95
2022/10/26 04:33:30;;;;;;;8.38;3.90;;;9.00;99.90;;;;;;6314806;22;20015;-95
2022/10/26 04:36:05;;;;;;;9.50;4.35;;;9.00;99.90;;;;;;6286286;22;20015;-95
2022/10/26 04:38:33;;;;;;;7.93;3.47;;;9.00;99.90;;;;;;6286606;22;20015;-96
2022/10/26 04:40:59;;;;;;;8.40;4.35;;;9.00;99.90;;;;;;6286851;22;20014;-95
2022/10/26 04:43:24;;;;;;;8.93;4.10;;;9.00;99.90;;;;;;6261411;22;20052;-96
2022/10/26 04:45:54;;;;;;;9.87;5.13;;;9.00;99.90;;;;;;6286146;22;20011;-95
2022/10/26 04:51:29;;;;;;;8.23;4.07;;;9.10;99.90;;;;;;6322950;22;21520;-96
2022/10/26 04:59:37;;;;;;;8.90;4.28;;;9.20;99.90;;;;;;6340669;22;20019;-95
2022/10/26 05:36:53;;;;;;;10.85;5.13;;;9.80;99.90;;;;;;6352667;22;20010;-94
2022/10/26 05:39:25;;;;;;;9.73;5.43;;;9.90;99.90;;;;;;6297727;22;20099;-93
2022/10/26 05:42:09;;;;;;;19.08;4.97;;;9.90;99.90;;;;;;6327279;22;20003;-96
2022/10/26 05:44:54;;;;;;;12.68;5.65;;;9.90;99.90;;;;;;6305404;22;20002;-93
2022/10/26 13:02:01;;;;;;;3.78;1.10;;;17.40;99.90;;;;;;6289168;22;20022;-92
2022/10/26 13:04:41;;;;;;;3.33;1.30;;;17.40;99.90;;;;;;6287086;22;20071;-93
2022/10/26 13:07:23;;;;;;;6.82;1.52;;;17.40;99.90;;;;;;6286892;22;20452;-91
2022/10/26 13:09:59;;;;;;;3.40;1.40;;;17.40;99.90;;;;;;6287365;22;20011;-93
2022/10/26 13:12:26;;;;;;;5.32;1.63;;;17.40;99.90;;;;;;6288260;22;20116;-93
2022/10/26 13:15:04;;;;;;;5.00;1.48;;;17.40;99.90;;;;;;6287472;22;20063;-92
2022/10/26 13:17:31;;;;;;;4.47;1.30;;;17.40;99.90;;;;;;6287062;22;20043;-95
2022/10/26 13:20:03;;;;;;;3.85;1.40;;;17.40;99.90;;;;;;6287660;22;20019;-95
2022/10/26 13:22:30;;;;;;;4.22;1.40;;;17.50;99.90;;;;;;6287249;22;20011;-94
2022/10/26 13:25:21;;;;;;;2.92;1.35;;;17.50;99.90;;;;;;6286784;22;20025;-94
2022/10/26 13:27:58;;;;;;;3.60;1.20;;;17.50;99.90;;;;;;6287203;22;20018;-95
2022/10/26 13:30:33;;;;;;;3.22;1.20;;;17.40;99.90;;;;;;6287291;22;20019;-95
2022/10/26 13:33:01;;;;;;;2.75;1.25;;;17.40;99.90;;;;;;6339017;22;20348;-92
2022/10/26 13:35:27;;;;;;;4.07;1.33;;;17.40;99.90;;;;;;6288521;22;20067;-92
2022/10/26 13:37:55;;;;;;;3.13;1.40;;;17.30;99.90;;;;;;6261410;22;20018;-94
2022/10/26 13:40:27;;;;;;;4.40;1.50;;;17.30;99.90;;;;;;6260975;22;20046;-96
2022/10/26 13:42:56;;;;;;;5.10;1.88;;;17.30;99.90;;;;;;6290183;22;20029;-96
2022/10/26 13:46:16;;;;;;;6.20;1.60;;;17.30;99.90;;;;;;6291366;22;20025;-94
2022/10/26 13:48:46;;;;;;;4.95;1.52;;;17.30;99.90;;;;;;6315152;22;20575;-93
2022/10/26 13:51:26;;;;;;;3.55;1.38;;;17.20;99.90;;;;;;6291698;22;20139;-96
2022/10/26 13:53:59;;;;;;;3.60;1.70;;;17.20;99.90;;;;;;6316059;22;20019;-94
2022/10/26 13:56:47;;;;;;;4.43;2.30;;;17.20;99.90;;;;;;6289657;22;20014;-95
2022/10/26 13:59:14;;;;;;;4.10;1.80;;;17.20;99.90;;;;;;6294022;22;20027;-95
2022/10/26 16:00:58;;;;;;;6.90;3.55;;;16.40;99.90;;;;;;6243099;22;20094;-95
2022/10/26 16:03:26;;;;;;;25.42;15.80;;;16.40;99.90;;;;;;6296860;22;20019;-92
2022/10/26 16:05:56;;;;;;;9.45;5.30;;;16.40;99.90;;;;;;6297401;22;20097;-92
2022/10/26 16:08:25;;;;;;;18.85;16.95;;;16.40;99.90;;;;;;6328236;22;20110;-89
2022/10/26 16:10:51;;;;;;;82.35;74.22;;;16.40;99.90;;;;;;6248446;22;20021;-90
2022/10/26 16:13:17;;;;;;;33.72;30.40;;;16.40;99.90;;;;;;6274786;22;20011;-91
2022/10/26 16:15:45;;;;;;;7.15;5.05;;;16.30;99.90;;;;;;6301761;22;20026;-91
2022/10/26 16:18:14;;;;;;;6.70;4.18;;;16.30;99.90;;;;;;6327607;22;20025;-91
2022/10/26 16:20:47;;;;;;;17.38;15.85;;;16.30;99.90;;;;;;6350543;22;20018;-92
2022/10/26 16:23:13;;;;;;;12.32;10.30;;;16.20;99.90;;;;;;6292599;22;20019;-92
2022/10/26 16:25:44;;;;;;;8.48;5.60;;;16.20;99.90;;;;;;6292948;22;20013;-92
2022/10/26 16:28:13;;;;;;;5.35;3.60;;;16.20;99.90;;;;;;6294237;22;20019;-93
2022/10/26 16:30:39;;;;;;;7.25;4.13;;;16.20;99.90;;;;;;6293150;22;20019;-92
2022/10/26 16:33:06;;;;;;;6.43;3.88;;;16.20;99.90;;;;;;6294478;22;20067;-90
2022/10/26 16:35:31;;;;;;;5.40;3.47;;;16.20;99.90;;;;;;6242405;22;20003;-94
2022/10/26 16:37:57;;;;;;;5.97;3.30;;;16.10;99.90;;;;;;6266785;22;20070;-92
2022/10/26 16:40:23;;;;;;;7.00;3.40;;;16.10;99.90;;;;;;6290253;22;20023;-94
2022/10/26 16:42:48;;;;;;;8.30;3.85;;;16.10;99.90;;;;;;6294183;22;20015;-94
2022/10/26 16:45:17;;;;;;;5.00;3.10;;;16.10;99.90;;;;;;6296990;22;20019;-91
2022/10/26 16:47:47;;;;;;;6.82;3.20;;;16.10;99.90;;;;;;6314890;22;20003;-93
2022/10/26 16:50:19;;;;;;;5.13;2.90;;;16.00;99.90;;;;;;6281158;22;20452;-93
2022/10/26 16:52:44;;;;;;;5.60;2.95;;;16.00;99.90;;;;;;6290633;22;20149;-93
2022/10/26 16:55:14;;;;;;;7.80;3.30;;;16.00;99.90;;;;;;6294552;22;20066;-91
2022/10/26 16:57:41;;;;;;;4.63;2.75;;;16.00;99.90;;;;;;6290936;22;20076;-93
2022/10/26 17:00:08;;;;;;;4.78;2.58;;;16.00;99.90;;;;;;6269977;22;20014;-91
2022/10/26 17:02:38;;;;;;;4.82;2.58;;;16.00;99.90;;;;;;6185644;23;20099;-91
2022/10/26 17:05:07;;;;;;;4.53;2.70;;;16.00;99.90;;;;;;6141495;23;20338;-92
2022/10/26 17:07:33;;;;;;;4.68;2.45;;;16.00;99.90;;;;;;6190150;23;20048;-92
2022/10/26 17:10:01;;;;;;;6.05;3.85;;;15.90;99.90;;;;;;6187632;23;20122;-96
2022/10/26 17:12:27;;;;;;;5.90;3.72;;;15.90;99.90;;;;;;6167221;23;20016;-91
2022/10/26 17:14:55;;;;;;;5.50;3.10;;;15.90;99.90;;;;;;6192627;23;20099;-95
2022/10/26 17:17:21;;;;;;;5.28;2.53;;;15.90;99.90;;;;;;6190971;23;20516;-94
2022/10/26 17:19:47;;;;;;;5.05;2.78;;;15.90;99.90;;;;;;6192167;22;20012;-92
2022/10/26 17:22:13;;;;;;;4.18;2.53;;;15.80;99.90;;;;;;6186934;23;20076;-93
2022/10/26 17:25:11;;;;;;;4.28;2.53;;;15.80;99.90;;;;;;6227527;22;20046;-93
2022/10/26 17:27:44;;;;;;;8.60;2.95;;;15.80;99.90;;;;;;6192431;23;20021;-92
2022/10/26 17:30:16;;;;;;;4.22;2.50;;;15.80;99.90;;;;;;6217650;23;20125;-93
2022/10/26 17:32:45;;;;;;;10.07;8.30;;;15.80;99.90;;;;;;6172104;23;20024;-92
2022/10/26 17:35:19;;;;;;;5.38;2.50;;;15.70;99.90;;;;;;6173222;23;20020;-91
2022/10/26 17:37:45;;;;;;;5.90;2.90;;;15.70;99.90;;;;;;6198259;23;20017;-91
2022/10/26 17:40:20;;;;;;;6.38;2.72;;;15.70;99.90;;;;;;6196492;23;20004;-92
2022/10/26 19:14:36;;;;;;;6.75;2.53;;;15.40;99.90;;;;;;6214363;23;20029;-92
2022/10/26 19:17:55;;;;;;;5.90;2.90;;;15.40;99.90;;;;;;6183885;23;20086;-91
2022/10/26 19:20:42;;;;;;;5.47;2.72;;;15.40;99.90;;;;;;6158409;22;20479;-91
2022/10/26 19:23:24;;;;;;;4.05;2.53;;;15.50;99.90;;;;;;6184491;23;20028;-90
2022/10/26 19:25:54;;;;;;;6.35;2.85;;;15.50;99.90;;;;;;6138062;23;20017;-93
2022/10/26 19:43:56;;;;;;;6.13;2.90;;;15.50;99.90;;;;;;6188692;23;20028;-91
2022/10/26 19:46:24;;;;;;;4.18;2.30;;;15.50;99.90;;;;;;6137550;23;20390;-91
2022/10/26 19:48:56;;;;;;;4.78;2.55;;;15.50;99.90;;;;;;6141023;23;20024;-91
2022/10/26 23:27:10;;;;;;;3.88;1.80;;;14.70;99.90;;;;;;6284996;22;20022;-94
2022/10/26 23:29:37;;;;;;;3.45;1.50;;;14.60;99.90;;;;;;6271061;22;20097;-96
2022/10/26 23:32:03;;;;;;;5.50;1.63;;;14.60;99.90;;;;;;6294574;22;20018;-92
2022/10/26 23:34:28;;;;;;;3.85;1.70;;;14.50;99.90;;;;;;6288253;22;20018;-93
2022/10/26 23:37:34;;;;;;;3.73;1.43;;;14.50;99.90;;;;;;6287995;22;20054;-92
2022/10/26 23:40:01;;;;;;;3.40;1.30;;;14.30;99.90;;;;;;6287810;22;20249;-91
2022/10/26 23:42:30;;;;;;;3.95;1.50;;;14.20;99.90;;;;;;6288576;22;20054;-92
2022/10/26 23:44:56;;;;;;;2.40;1.13;;;14.00;99.90;;;;;;6287566;22;20378;-92
2022/10/26 23:47:27;;;;;;;6.33;1.67;;;14.00;99.90;;;;;;6288821;22;20048;-91
2022/10/26 23:49:52;;;;;;;6.53;1.58;;;13.90;99.90;;;;;;6263073;22;20252;-92
2022/10/26 23:53:01;;;;;;;2.90;1.40;;;13.80;99.90;;;;;;6288563;22;20317;-91
2022/10/26 23:55:55;;;;;;;7.00;1.50;;;13.80;99.90;;;;;;6312486;22;20074;-92
2022/10/26 23:58:24;;;;;;;4.13;1.58;;;13.70;99.90;;;;;;6289556;22;20018;-92
